sensor_id;sensor_type;location;lat;lon;timestamp;temperature;humidity
51337;DHT22;37421;51.176;17.196;2022-10-16T00:02:25;19.70;99.90
51337;DHT22;37421;51.176;17.196;2022-10-16T00:04:51;19.70;99.90
51337;DHT22;37421;51.176;17.196;2022-10-16T00:07:17;19.70;99.90
51337;DHT22;37421;51.176;17.196;2022-10-16T00:09:43;19.70;99.90
51337;DHT22;37421;51.176;17.196;2022-10-16T00:12:09;19.70;99.90
51337;DHT22;37421;51.176;17.196;2022-10-16T00:14:44;19.70;99.90
51337;DHT22;37421;51.176;17.196;2022-10-16T00:17:11;19.70;99.90
51337;DHT22;37421;51.176;17.196;2022-10-16T00:19:37;19.70;99.90
51337;DHT22;37421;51.176;17.196;2022-10-16T00:22:03;19.70;99.90
51337;DHT22;37421;51.176;17.196;2022-10-16T00:24:29;19.70;99.90
51337;DHT22;37421;51.176;17.196;2022-10-16T00:26:55;19.70;99.90
51337;DHT22;37421;51.176;17.196;2022-10-16T00:29:24;19.70;99.90
51337;DHT22;37421;51.176;17.196;2022-10-16T00:31:50;19.70;99.90
51337;DHT22;37421;51.176;17.196;2022-10-16T00:34:16;19.70;99.90
51337;DHT22;37421;51.176;17.196;2022-10-16T00:36:42;19.70;99.90
51337;DHT22;37421;51.176;17.196;2022-10-16T00:39:08;19.70;99.90
51337;DHT22;37421;51.176;17.196;2022-10-16T00:41:34;19.70;99.90
51337;DHT22;37421;51.176;17.196;2022-10-16T00:44:03;19.70;99.90
51337;DHT22;37421;51.176;17.196;2022-10-16T00:46:51;19.70;99.90
51337;DHT22;37421;51.176;17.196;2022-10-16T00:49:19;19.70;99.90
51337;DHT22;37421;51.176;17.196;2022-10-16T00:51:53;19.70;99.90
51337;DHT22;37421;51.176;17.196;2022-10-16T00:54:21;19.60;99.90
51337;DHT22;37421;51.176;17.196;2022-10-16T00:56:48;19.70;99.90
51337;DHT22;37421;51.176;17.196;2022-10-16T01:02:22;19.60;99.90
51337;DHT22;37421;51.176;17.196;2022-10-16T01:04:51;19.60;99.90
51337;DHT22;37421;51.176;17.196;2022-10-16T01:07:30;19.60;99.90
51337;DHT22;37421;51.176;17.196;2022-10-16T01:12:45;19.60;99.90
51337;DHT22;37421;51.176;17.196;2022-10-16T01:17:52;19.60;99.90
51337;DHT22;37421;51.176;17.196;2022-10-16T01:20:25;19.60;99.90
51337;DHT22;37421;51.176;17.196;2022-10-16T01:26:30;19.60;99.90
51337;DHT22;37421;51.176;17.196;2022-10-16T01:29:25;19.60;99.90
51337;DHT22;37421;51.176;17.196;2022-10-16T01:31:54;19.60;99.90
51337;DHT22;37421;51.176;17.196;2022-10-16T01:34:28;19.60;99.90
51337;DHT22;37421;51.176;17.196;2022-10-16T01:37:05;19.60;99.90
51337;DHT22;37421;51.176;17.196;2022-10-16T01:39:36;19.60;99.90
51337;DHT22;37421;51.176;17.196;2022-10-16T01:42:14;19.60;99.90
51337;DHT22;37421;51.176;17.196;2022-10-16T01:44:42;19.60;99.90
51337;DHT22;37421;51.176;17.196;2022-10-16T01:47:10;19.60;99.90
51337;DHT22;37421;51.176;17.196;2022-10-16T01:49:40;19.60;99.90
51337;DHT22;37421;51.176;17.196;2022-10-16T01:52:13;19.60;99.90
51337;DHT22;37421;51.176;17.196;2022-10-16T01:54:43;19.60;99.90
51337;DHT22;37421;51.176;17.196;2022-10-16T01:57:12;19.60;99.90
51337;DHT22;37421;51.176;17.196;2022-10-16T01:59:44;19.60;99.90
51337;DHT22;37421;51.176;17.196;2022-10-16T02:02:13;19.60;99.90
51337;DHT22;37421;51.176;17.196;2022-10-16T02:04:46;19.60;99.90
51337;DHT22;37421;51.176;17.196;2022-10-16T02:07:13;19.60;99.90
51337;DHT22;37421;51.176;17.196;2022-10-16T02:09:40;19.60;99.90
51337;DHT22;37421;51.176;17.196;2022-10-16T02:12:36;19.60;99.90
51337;DHT22;37421;51.176;17.196;2022-10-16T02:15:06;19.60;99.90
51337;DHT22;37421;51.176;17.196;2022-10-16T02:17:32;19.60;99.90
51337;DHT22;37421;51.176;17.196;2022-10-16T02:19:59;19.60;99.90
51337;DHT22;37421;51.176;17.196;2022-10-16T02:22:49;19.60;99.90
51337;DHT22;37421;51.176;17.196;2022-10-16T02:25:24;19.60;99.90
51337;DHT22;37421;51.176;17.196;2022-10-16T02:31:04;19.60;99.90
51337;DHT22;37421;51.176;17.196;2022-10-16T02:33:32;19.60;99.90
51337;DHT22;37421;51.176;17.196;2022-10-16T02:35:59;19.60;99.90
51337;DHT22;37421;51.176;17.196;2022-10-16T02:38:26;19.60;99.90
51337;DHT22;37421;51.176;17.196;2022-10-16T02:40:52;19.60;99.90
51337;DHT22;37421;51.176;17.196;2022-10-16T02:43:19;19.60;99.90
51337;DHT22;37421;51.176;17.196;2022-10-16T02:45:45;19.60;99.90
51337;DHT22;37421;51.176;17.196;2022-10-16T02:48:11;19.50;99.90
51337;DHT22;37421;51.176;17.196;2022-10-16T02:50:37;19.50;99.90
51337;DHT22;37421;51.176;17.196;2022-10-16T02:53:42;19.50;99.90
51337;DHT22;37421;51.176;17.196;2022-10-16T02:56:08;19.60;99.90
51337;DHT22;37421;51.176;17.196;2022-10-16T02:58:37;19.50;99.90
51337;DHT22;37421;51.176;17.196;2022-10-16T03:01:04;19.60;99.90
51337;DHT22;37421;51.176;17.196;2022-10-16T03:03:30;19.70;99.90
51337;DHT22;37421;51.176;17.196;2022-10-16T03:05:56;19.70;99.90
51337;DHT22;37421;51.176;17.196;2022-10-16T03:08:22;19.70;99.90
51337;DHT22;37421;51.176;17.196;2022-10-16T03:11:11;19.70;99.90
51337;DHT22;37421;51.176;17.196;2022-10-16T03:13:37;19.70;99.90
51337;DHT22;37421;51.176;17.196;2022-10-16T03:16:03;19.70;99.90
51337;DHT22;37421;51.176;17.196;2022-10-16T03:18:30;19.70;99.90
51337;DHT22;37421;51.176;17.196;2022-10-16T03:20:56;19.60;99.90
51337;DHT22;37421;51.176;17.196;2022-10-16T03:23:28;19.60;99.90
51337;DHT22;37421;51.176;17.196;2022-10-16T03:26:12;19.60;99.90
51337;DHT22;37421;51.176;17.196;2022-10-16T03:28:38;19.60;99.90
51337;DHT22;37421;51.176;17.196;2022-10-16T03:31:05;19.60;99.90
51337;DHT22;37421;51.176;17.196;2022-10-16T03:33:31;19.60;99.90
51337;DHT22;37421;51.176;17.196;2022-10-16T03:35:57;19.60;99.90
51337;DHT22;37421;51.176;17.196;2022-10-16T03:38:23;19.60;99.90
51337;DHT22;37421;51.176;17.196;2022-10-16T03:40:49;19.70;99.90
51337;DHT22;37421;51.176;17.196;2022-10-16T03:43:15;19.60;99.90
51337;DHT22;37421;51.176;17.196;2022-10-16T03:45:42;19.60;99.90
51337;DHT22;37421;51.176;17.196;2022-10-16T03:48:41;19.60;99.90
51337;DHT22;37421;51.176;17.196;2022-10-16T03:51:07;19.60;99.90
51337;DHT22;37421;51.176;17.196;2022-10-16T03:53:33;19.70;99.90
51337;DHT22;37421;51.176;17.196;2022-10-16T03:56:00;19.60;99.90
51337;DHT22;37421;51.176;17.196;2022-10-16T03:58:29;19.70;99.90
51337;DHT22;37421;51.176;17.196;2022-10-16T04:00:55;19.60;99.90
51337;DHT22;37421;51.176;17.196;2022-10-16T04:03:21;19.70;99.90
51337;DHT22;37421;51.176;17.196;2022-10-16T04:06:02;19.60;99.90
51337;DHT22;37421;51.176;17.196;2022-10-16T04:08:28;19.60;99.90
51337;DHT22;37421;51.176;17.196;2022-10-16T04:14:16;19.70;99.90
51337;DHT22;37421;51.176;17.196;2022-10-16T04:16:43;19.70;99.90
51337;DHT22;37421;51.176;17.196;2022-10-16T04:19:40;19.70;99.90
51337;DHT22;37421;51.176;17.196;2022-10-16T04:22:06;19.70;99.90
51337;DHT22;37421;51.176;17.196;2022-10-16T04:24:32;19.60;99.90
51337;DHT22;37421;51.176;17.196;2022-10-16T04:26:59;19.70;99.90
51337;DHT22;37421;51.176;17.196;2022-10-16T04:29:25;19.70;99.90
51337;DHT22;37421;51.176;17.196;2022-10-16T04:31:51;19.80;99.90
51337;DHT22;37421;51.176;17.196;2022-10-16T04:34:17;19.90;99.90
51337;DHT22;37421;51.176;17.196;2022-10-16T04:36:43;19.80;99.90
51337;DHT22;37421;51.176;17.196;2022-10-16T04:39:09;19.90;99.90
51337;DHT22;37421;51.176;17.196;2022-10-16T04:41:35;19.80;99.90
51337;DHT22;37421;51.176;17.196;2022-10-16T04:44:01;19.80;99.90
51337;DHT22;37421;51.176;17.196;2022-10-16T04:49:43;19.80;99.90
51337;DHT22;37421;51.176;17.196;2022-10-16T04:52:09;19.80;99.90
51337;DHT22;37421;51.176;17.196;2022-10-16T04:55:13;19.90;99.90
51337;DHT22;37421;51.176;17.196;2022-10-16T04:57:40;19.80;99.90
51337;DHT22;37421;51.176;17.196;2022-10-16T05:00:06;19.80;99.90
51337;DHT22;37421;51.176;17.196;2022-10-16T05:02:33;19.80;99.90
51337;DHT22;37421;51.176;17.196;2022-10-16T05:04:59;19.90;99.90
51337;DHT22;37421;51.176;17.196;2022-10-16T05:07:26;20.00;99.90
51337;DHT22;37421;51.176;17.196;2022-10-16T05:09:52;19.90;99.90
51337;DHT22;37421;51.176;17.196;2022-10-16T05:12:18;19.90;99.90
51337;DHT22;37421;51.176;17.196;2022-10-16T05:14:44;19.90;99.90
51337;DHT22;37421;51.176;17.196;2022-10-16T05:17:11;19.90;99.90
51337;DHT22;37421;51.176;17.196;2022-10-16T05:19:37;19.90;99.90
51337;DHT22;37421;51.176;17.196;2022-10-16T05:25:15;20.00;99.90
51337;DHT22;37421;51.176;17.196;2022-10-16T05:27:41;19.90;99.90
51337;DHT22;37421;51.176;17.196;2022-10-16T05:30:08;20.00;99.90
51337;DHT22;37421;51.176;17.196;2022-10-16T05:32:45;19.90;99.90
51337;DHT22;37421;51.176;17.196;2022-10-16T05:35:29;19.90;99.90
51337;DHT22;37421;51.176;17.196;2022-10-16T05:37:56;20.00;99.90
51337;DHT22;37421;51.176;17.196;2022-10-16T05:40:21;19.90;99.90
51337;DHT22;37421;51.176;17.196;2022-10-16T05:42:47;19.90;99.90
51337;DHT22;37421;51.176;17.196;2022-10-16T05:45:13;19.90;99.90
51337;DHT22;37421;51.176;17.196;2022-10-16T05:47:39;19.90;99.90
51337;DHT22;37421;51.176;17.196;2022-10-16T05:50:05;19.90;99.90
51337;DHT22;37421;51.176;17.196;2022-10-16T05:52:32;19.90;99.90
51337;DHT22;37421;51.176;17.196;2022-10-16T05:54:57;20.00;99.90
51337;DHT22;37421;51.176;17.196;2022-10-16T05:57:23;19.90;99.90
51337;DHT22;37421;51.176;17.196;2022-10-16T05:59:49;19.90;99.90
51337;DHT22;37421;51.176;17.196;2022-10-16T06:02:15;19.90;99.90
51337;DHT22;37421;51.176;17.196;2022-10-16T06:04:41;19.90;99.90
51337;DHT22;37421;51.176;17.196;2022-10-16T06:07:07;19.90;99.90
51337;DHT22;37421;51.176;17.196;2022-10-16T06:09:33;19.90;99.90
51337;DHT22;37421;51.176;17.196;2022-10-16T06:12:00;19.90;99.90
51337;DHT22;37421;51.176;17.196;2022-10-16T06:14:26;19.90;99.90
51337;DHT22;37421;51.176;17.196;2022-10-16T06:16:52;19.90;99.90
51337;DHT22;37421;51.176;17.196;2022-10-16T06:19:18;19.90;99.90
51337;DHT22;37421;51.176;17.196;2022-10-16T06:24:32;19.90;99.90
51337;DHT22;37421;51.176;17.196;2022-10-16T06:26:58;19.90;99.90
51337;DHT22;37421;51.176;17.196;2022-10-16T06:29:24;19.90;99.90
51337;DHT22;37421;51.176;17.196;2022-10-16T06:31:50;20.00;99.90
51337;DHT22;37421;51.176;17.196;2022-10-16T06:34:16;19.90;99.90
51337;DHT22;37421;51.176;17.196;2022-10-16T06:36:51;20.00;99.90
51337;DHT22;37421;51.176;17.196;2022-10-16T06:39:17;20.00;99.90
51337;DHT22;37421;51.176;17.196;2022-10-16T06:42:03;20.00;99.90
51337;DHT22;37421;51.176;17.196;2022-10-16T06:44:30;20.00;99.90
51337;DHT22;37421;51.176;17.196;2022-10-16T06:46:56;20.00;99.90
51337;DHT22;37421;51.176;17.196;2022-10-16T06:49:22;20.00;99.90
51337;DHT22;37421;51.176;17.196;2022-10-16T06:51:49;20.00;99.90
51337;DHT22;37421;51.176;17.196;2022-10-16T06:54:15;20.00;99.90
51337;DHT22;37421;51.176;17.196;2022-10-16T06:56:41;20.00;99.90
51337;DHT22;37421;51.176;17.196;2022-10-16T06:59:07;20.00;99.90
51337;DHT22;37421;51.176;17.196;2022-10-16T07:01:33;20.00;99.90
51337;DHT22;37421;51.176;17.196;2022-10-16T07:04:00;20.10;99.90
51337;DHT22;37421;51.176;17.196;2022-10-16T07:06:27;20.10;99.90
51337;DHT22;37421;51.176;17.196;2022-10-16T07:08:55;20.10;99.90
51337;DHT22;37421;51.176;17.196;2022-10-16T07:11:22;20.20;99.90
51337;DHT22;37421;51.176;17.196;2022-10-16T07:13:50;20.20;99.90
51337;DHT22;37421;51.176;17.196;2022-10-16T07:16:19;20.20;99.90
51337;DHT22;37421;51.176;17.196;2022-10-16T07:18:46;20.30;99.90
51337;DHT22;37421;51.176;17.196;2022-10-16T07:21:19;20.30;99.90
51337;DHT22;37421;51.176;17.196;2022-10-16T07:23:50;20.30;99.90
51337;DHT22;37421;51.176;17.196;2022-10-16T07:26:16;20.30;99.90
51337;DHT22;37421;51.176;17.196;2022-10-16T07:28:43;20.30;99.90
51337;DHT22;37421;51.176;17.196;2022-10-16T07:31:12;20.20;99.90
51337;DHT22;37421;51.176;17.196;2022-10-16T07:33:40;20.30;99.90
51337;DHT22;37421;51.176;17.196;2022-10-16T07:36:07;20.30;99.90
51337;DHT22;37421;51.176;17.196;2022-10-16T07:38:33;20.30;99.90
51337;DHT22;37421;51.176;17.196;2022-10-16T07:41:04;20.30;99.90
51337;DHT22;37421;51.176;17.196;2022-10-16T07:43:31;20.30;99.90
51337;DHT22;37421;51.176;17.196;2022-10-16T07:45:58;20.30;99.90
51337;DHT22;37421;51.176;17.196;2022-10-16T07:48:27;20.40;99.90
51337;DHT22;37421;51.176;17.196;2022-10-16T07:50:57;20.40;99.90
51337;DHT22;37421;51.176;17.196;2022-10-16T07:53:25;20.40;99.90
51337;DHT22;37421;51.176;17.196;2022-10-16T07:55:51;20.40;99.90
51337;DHT22;37421;51.176;17.196;2022-10-16T07:58:17;20.40;99.90
51337;DHT22;37421;51.176;17.196;2022-10-16T08:00:43;20.40;99.90
51337;DHT22;37421;51.176;17.196;2022-10-16T08:03:09;20.40;99.90
51337;DHT22;37421;51.176;17.196;2022-10-16T08:05:35;20.40;99.90
51337;DHT22;37421;51.176;17.196;2022-10-16T08:08:02;20.50;99.90
51337;DHT22;37421;51.176;17.196;2022-10-16T08:10:29;20.50;99.90
51337;DHT22;37421;51.176;17.196;2022-10-16T08:12:55;20.50;99.90
51337;DHT22;37421;51.176;17.196;2022-10-16T08:15:21;20.60;99.90
51337;DHT22;37421;51.176;17.196;2022-10-16T08:17:58;20.50;99.90
51337;DHT22;37421;51.176;17.196;2022-10-16T08:20:26;20.50;99.90
51337;DHT22;37421;51.176;17.196;2022-10-16T08:22:53;20.60;99.90
51337;DHT22;37421;51.176;17.196;2022-10-16T08:25:21;20.70;99.90
51337;DHT22;37421;51.176;17.196;2022-10-16T08:27:47;20.80;99.90
51337;DHT22;37421;51.176;17.196;2022-10-16T08:30:14;20.80;99.90
51337;DHT22;37421;51.176;17.196;2022-10-16T08:32:40;20.80;99.90
51337;DHT22;37421;51.176;17.196;2022-10-16T08:35:10;20.80;99.90
51337;DHT22;37421;51.176;17.196;2022-10-16T08:37:36;20.80;99.90
51337;DHT22;37421;51.176;17.196;2022-10-16T08:40:04;20.80;99.90
51337;DHT22;37421;51.176;17.196;2022-10-16T08:45:49;20.70;99.90
51337;DHT22;37421;51.176;17.196;2022-10-16T08:48:27;20.70;99.90
51337;DHT22;37421;51.176;17.196;2022-10-16T08:50:56;20.70;99.90
51337;DHT22;37421;51.176;17.196;2022-10-16T08:53:59;20.70;99.90
51337;DHT22;37421;51.176;17.196;2022-10-16T08:56:25;20.70;99.90
51337;DHT22;37421;51.176;17.196;2022-10-16T08:58:52;20.70;99.90
51337;DHT22;37421;51.176;17.196;2022-10-16T09:01:21;20.70;99.90
51337;DHT22;37421;51.176;17.196;2022-10-16T09:04:01;20.70;99.90
51337;DHT22;37421;51.176;17.196;2022-10-16T09:11:58;20.70;99.90
51337;DHT22;37421;51.176;17.196;2022-10-16T09:19:51;20.70;99.90
51337;DHT22;37421;51.176;17.196;2022-10-16T09:22:22;20.70;99.90
51337;DHT22;37421;51.176;17.196;2022-10-16T09:24:52;20.70;99.90
51337;DHT22;37421;51.176;17.196;2022-10-16T09:27:19;20.70;99.90
51337;DHT22;37421;51.176;17.196;2022-10-16T09:29:45;20.70;99.90
51337;DHT22;37421;51.176;17.196;2022-10-16T09:32:17;20.70;99.90
51337;DHT22;37421;51.176;17.196;2022-10-16T09:34:49;20.70;99.90
51337;DHT22;37421;51.176;17.196;2022-10-16T09:37:21;20.70;99.90
51337;DHT22;37421;51.176;17.196;2022-10-16T09:39:50;20.70;99.90
51337;DHT22;37421;51.176;17.196;2022-10-16T09:42:27;20.70;99.90
51337;DHT22;37421;51.176;17.196;2022-10-16T09:44:54;20.70;99.90
51337;DHT22;37421;51.176;17.196;2022-10-16T09:47:23;20.70;99.90
51337;DHT22;37421;51.176;17.196;2022-10-16T09:49:56;20.70;99.90
51337;DHT22;37421;51.176;17.196;2022-10-16T09:52:24;20.70;99.90
51337;DHT22;37421;51.176;17.196;2022-10-16T09:54:56;20.70;99.90
51337;DHT22;37421;51.176;17.196;2022-10-16T09:57:23;20.70;99.90
51337;DHT22;37421;51.176;17.196;2022-10-16T09:59:51;20.70;99.90
51337;DHT22;37421;51.176;17.196;2022-10-16T10:02:21;20.70;99.90
51337;DHT22;37421;51.176;17.196;2022-10-16T10:04:51;20.70;99.90
51337;DHT22;37421;51.176;17.196;2022-10-16T10:07:28;20.70;99.90
51337;DHT22;37421;51.176;17.196;2022-10-16T10:09:59;20.70;99.90
51337;DHT22;37421;51.176;17.196;2022-10-16T10:12:28;20.80;99.90
51337;DHT22;37421;51.176;17.196;2022-10-16T10:15:07;20.80;99.90
51337;DHT22;37421;51.176;17.196;2022-10-16T10:17:33;20.80;99.90
51337;DHT22;37421;51.176;17.196;2022-10-16T10:22:45;20.90;99.90
51337;DHT22;37421;51.176;17.196;2022-10-16T10:30:36;20.90;99.90
51337;DHT22;37421;51.176;17.196;2022-10-16T10:38:39;20.90;99.90
51337;DHT22;37421;51.176;17.196;2022-10-16T10:50:24;21.00;99.90
51337;DHT22;37421;51.176;17.196;2022-10-16T10:52:59;21.00;99.90
51337;DHT22;37421;51.176;17.196;2022-10-16T10:58:50;20.90;99.90
51337;DHT22;37421;51.176;17.196;2022-10-16T11:01:16;21.00;99.90
51337;DHT22;37421;51.176;17.196;2022-10-16T11:04:17;21.00;99.90
51337;DHT22;37421;51.176;17.196;2022-10-16T11:06:55;20.90;99.90
51337;DHT22;37421;51.176;17.196;2022-10-16T11:09:39;21.00;99.90
51337;DHT22;37421;51.176;17.196;2022-10-16T11:17:31;21.00;99.90
51337;DHT22;37421;51.176;17.196;2022-10-16T11:22:57;21.10;99.90
51337;DHT22;37421;51.176;17.196;2022-10-16T11:25:31;21.10;99.90
51337;DHT22;37421;51.176;17.196;2022-10-16T11:28:34;21.10;99.90
51337;DHT22;37421;51.176;17.196;2022-10-16T11:36:43;21.10;99.90
51337;DHT22;37421;51.176;17.196;2022-10-16T11:39:22;21.20;99.90
51337;DHT22;37421;51.176;17.196;2022-10-16T11:42:10;21.20;99.90
51337;DHT22;37421;51.176;17.196;2022-10-16T11:47:54;21.20;99.90
51337;DHT22;37421;51.176;17.196;2022-10-16T11:50:37;21.30;99.90
51337;DHT22;37421;51.176;17.196;2022-10-16T11:53:13;21.30;99.90
51337;DHT22;37421;51.176;17.196;2022-10-16T11:55:43;21.30;99.90
51337;DHT22;37421;51.176;17.196;2022-10-16T12:04:04;21.30;99.90
51337;DHT22;37421;51.176;17.196;2022-10-16T12:11:47;21.30;99.90
51337;DHT22;37421;51.176;17.196;2022-10-16T12:16:54;21.30;99.90
51337;DHT22;37421;51.176;17.196;2022-10-16T12:19:22;21.20;99.90
51337;DHT22;37421;51.176;17.196;2022-10-16T12:21:49;21.20;99.90
51337;DHT22;37421;51.176;17.196;2022-10-16T12:24:35;21.20;99.90
51337;DHT22;37421;51.176;17.196;2022-10-16T12:27:04;21.20;99.90
51337;DHT22;37421;51.176;17.196;2022-10-16T12:29:39;21.20;99.90
51337;DHT22;37421;51.176;17.196;2022-10-16T12:34:49;21.20;99.90
51337;DHT22;37421;51.176;17.196;2022-10-16T12:37:21;21.20;99.90
51337;DHT22;37421;51.176;17.196;2022-10-16T12:39:48;21.20;99.90
51337;DHT22;37421;51.176;17.196;2022-10-16T12:42:33;21.20;99.90
51337;DHT22;37421;51.176;17.196;2022-10-16T12:45:00;21.20;99.90
51337;DHT22;37421;51.176;17.196;2022-10-16T12:49:58;21.20;99.90
51337;DHT22;37421;51.176;17.196;2022-10-16T12:52:39;21.20;99.90
51337;DHT22;37421;51.176;17.196;2022-10-16T12:55:15;21.10;99.90
51337;DHT22;37421;51.176;17.196;2022-10-16T13:00:40;21.20;99.90
51337;DHT22;37421;51.176;17.196;2022-10-16T13:06:03;21.00;99.90
51337;DHT22;37421;51.176;17.196;2022-10-16T13:17:31;20.90;99.90
51337;DHT22;37421;51.176;17.196;2022-10-16T13:23:38;20.90;99.90
51337;DHT22;37421;51.176;17.196;2022-10-16T13:26:08;20.90;99.90
51337;DHT22;37421;51.176;17.196;2022-10-16T13:28:38;20.90;99.90
51337;DHT22;37421;51.176;17.196;2022-10-16T13:31:05;20.90;99.90
51337;DHT22;37421;51.176;17.196;2022-10-16T13:33:43;20.90;99.90
51337;DHT22;37421;51.176;17.196;2022-10-16T13:36:26;20.90;99.90
51337;DHT22;37421;51.176;17.196;2022-10-16T13:39:15;20.90;99.90
51337;DHT22;37421;51.176;17.196;2022-10-16T13:41:43;20.90;99.90
51337;DHT22;37421;51.176;17.196;2022-10-16T13:44:19;20.90;99.90
51337;DHT22;37421;51.176;17.196;2022-10-16T13:46:45;20.90;99.90
51337;DHT22;37421;51.176;17.196;2022-10-16T13:49:15;20.90;99.90
51337;DHT22;37421;51.176;17.196;2022-10-16T13:51:53;20.90;99.90
51337;DHT22;37421;51.176;17.196;2022-10-16T13:54:20;20.90;99.90
51337;DHT22;37421;51.176;17.196;2022-10-16T13:56:46;20.90;99.90
51337;DHT22;37421;51.176;17.196;2022-10-16T13:59:47;20.90;99.90
51337;DHT22;37421;51.176;17.196;2022-10-16T14:02:26;20.90;99.90
51337;DHT22;37421;51.176;17.196;2022-10-16T14:04:54;20.90;99.90
51337;DHT22;37421;51.176;17.196;2022-10-16T14:07:25;20.90;99.90
51337;DHT22;37421;51.176;17.196;2022-10-16T14:09:53;20.90;99.90
51337;DHT22;37421;51.176;17.196;2022-10-16T14:12:20;20.90;99.90
51337;DHT22;37421;51.176;17.196;2022-10-16T14:14:50;20.90;99.90
51337;DHT22;37421;51.176;17.196;2022-10-16T14:17:23;20.90;99.90
51337;DHT22;37421;51.176;17.196;2022-10-16T14:19:52;20.90;99.90
51337;DHT22;37421;51.176;17.196;2022-10-16T14:22:42;20.90;99.90
51337;DHT22;37421;51.176;17.196;2022-10-16T14:28:03;20.90;99.90
51337;DHT22;37421;51.176;17.196;2022-10-16T14:30:31;20.90;99.90
51337;DHT22;37421;51.176;17.196;2022-10-16T14:33:03;20.90;99.90
51337;DHT22;37421;51.176;17.196;2022-10-16T14:35:35;20.90;99.90
51337;DHT22;37421;51.176;17.196;2022-10-16T14:38:04;20.90;99.90
51337;DHT22;37421;51.176;17.196;2022-10-16T14:40:36;20.90;99.90
51337;DHT22;37421;51.176;17.196;2022-10-16T14:43:04;20.90;99.90
51337;DHT22;37421;51.176;17.196;2022-10-16T14:45:32;20.90;99.90
51337;DHT22;37421;51.176;17.196;2022-10-16T14:48:05;20.90;99.90
51337;DHT22;37421;51.176;17.196;2022-10-16T14:50:31;20.90;99.90
51337;DHT22;37421;51.176;17.196;2022-10-16T14:52:58;20.90;99.90
51337;DHT22;37421;51.176;17.196;2022-10-16T14:55:25;20.90;99.90
51337;DHT22;37421;51.176;17.196;2022-10-16T14:57:51;20.90;99.90
51337;DHT22;37421;51.176;17.196;2022-10-16T15:02:44;20.90;99.90
51337;DHT22;37421;51.176;17.196;2022-10-16T15:05:17;20.90;99.90
51337;DHT22;37421;51.176;17.196;2022-10-16T15:07:44;20.90;99.90
51337;DHT22;37421;51.176;17.196;2022-10-16T15:10:12;20.90;99.90
51337;DHT22;37421;51.176;17.196;2022-10-16T15:12:38;20.80;99.90
51337;DHT22;37421;51.176;17.196;2022-10-16T15:17:49;20.90;99.90
51337;DHT22;37421;51.176;17.196;2022-10-16T15:20:19;20.80;99.90
51337;DHT22;37421;51.176;17.196;2022-10-16T15:22:45;20.80;99.90
51337;DHT22;37421;51.176;17.196;2022-10-16T15:27:52;20.80;99.90
51337;DHT22;37421;51.176;17.196;2022-10-16T15:30:18;20.80;99.90
51337;DHT22;37421;51.176;17.196;2022-10-16T15:32:44;20.80;99.90
51337;DHT22;37421;51.176;17.196;2022-10-16T15:35:10;20.80;99.90
51337;DHT22;37421;51.176;17.196;2022-10-16T15:37:36;20.80;99.90
51337;DHT22;37421;51.176;17.196;2022-10-16T15:40:02;20.80;99.90
51337;DHT22;37421;51.176;17.196;2022-10-16T15:42:28;20.80;99.90
51337;DHT22;37421;51.176;17.196;2022-10-16T15:44:54;20.80;99.90
51337;DHT22;37421;51.176;17.196;2022-10-16T15:47:20;20.80;99.90
51337;DHT22;37421;51.176;17.196;2022-10-16T15:49:46;20.80;99.90
51337;DHT22;37421;51.176;17.196;2022-10-16T15:52:12;20.70;99.90
51337;DHT22;37421;51.176;17.196;2022-10-16T15:54:38;20.70;99.90
51337;DHT22;37421;51.176;17.196;2022-10-16T15:57:04;20.70;99.90
51337;DHT22;37421;51.176;17.196;2022-10-16T15:59:30;20.70;99.90
51337;DHT22;37421;51.176;17.196;2022-10-16T16:01:56;20.70;99.90
51337;DHT22;37421;51.176;17.196;2022-10-16T16:04:22;20.70;99.90
51337;DHT22;37421;51.176;17.196;2022-10-16T16:06:49;20.70;99.90
51337;DHT22;37421;51.176;17.196;2022-10-16T16:09:14;20.70;99.90
51337;DHT22;37421;51.176;17.196;2022-10-16T16:11:41;20.70;99.90
51337;DHT22;37421;51.176;17.196;2022-10-16T16:14:10;20.70;99.90
51337;DHT22;37421;51.176;17.196;2022-10-16T16:16:38;20.70;99.90
51337;DHT22;37421;51.176;17.196;2022-10-16T16:19:05;20.60;99.90
51337;DHT22;37421;51.176;17.196;2022-10-16T16:21:32;20.60;99.90
51337;DHT22;37421;51.176;17.196;2022-10-16T16:23:59;20.60;99.90
51337;DHT22;37421;51.176;17.196;2022-10-16T16:26:27;20.60;99.90
51337;DHT22;37421;51.176;17.196;2022-10-16T16:28:55;20.60;99.90
51337;DHT22;37421;51.176;17.196;2022-10-16T16:31:26;20.60;99.90
51337;DHT22;37421;51.176;17.196;2022-10-16T16:33:52;20.60;99.90
51337;DHT22;37421;51.176;17.196;2022-10-16T16:36:18;20.70;99.90
51337;DHT22;37421;51.176;17.196;2022-10-16T16:38:45;20.70;99.90
51337;DHT22;37421;51.176;17.196;2022-10-16T16:41:16;20.80;99.90
51337;DHT22;37421;51.176;17.196;2022-10-16T16:43:43;20.80;99.90
51337;DHT22;37421;51.176;17.196;2022-10-16T16:46:09;20.70;99.90
51337;DHT22;37421;51.176;17.196;2022-10-16T16:48:36;20.70;99.90
51337;DHT22;37421;51.176;17.196;2022-10-16T16:51:04;20.70;99.90
51337;DHT22;37421;51.176;17.196;2022-10-16T16:53:32;20.70;99.90
51337;DHT22;37421;51.176;17.196;2022-10-16T16:56:02;20.70;99.90
51337;DHT22;37421;51.176;17.196;2022-10-16T16:58:28;20.70;99.90
51337;DHT22;37421;51.176;17.196;2022-10-16T17:00:54;20.80;99.90
51337;DHT22;37421;51.176;17.196;2022-10-16T17:03:20;20.80;99.90
51337;DHT22;37421;51.176;17.196;2022-10-16T17:06:00;20.80;99.90
51337;DHT22;37421;51.176;17.196;2022-10-16T17:08:27;20.70;99.90
51337;DHT22;37421;51.176;17.196;2022-10-16T17:10:54;20.70;99.90
51337;DHT22;37421;51.176;17.196;2022-10-16T17:13:22;20.80;99.90
51337;DHT22;37421;51.176;17.196;2022-10-16T17:15:50;20.70;99.90
51337;DHT22;37421;51.176;17.196;2022-10-16T17:18:16;20.70;99.90
51337;DHT22;37421;51.176;17.196;2022-10-16T17:20:42;20.70;99.90
51337;DHT22;37421;51.176;17.196;2022-10-16T17:23:09;20.70;99.90
51337;DHT22;37421;51.176;17.196;2022-10-16T17:25:37;20.70;99.90
51337;DHT22;37421;51.176;17.196;2022-10-16T17:28:04;20.80;99.90
51337;DHT22;37421;51.176;17.196;2022-10-16T17:30:31;20.80;99.90
51337;DHT22;37421;51.176;17.196;2022-10-16T17:32:59;20.80;99.90
51337;DHT22;37421;51.176;17.196;2022-10-16T17:35:25;20.80;99.90
51337;DHT22;37421;51.176;17.196;2022-10-16T17:37:52;20.80;99.90
51337;DHT22;37421;51.176;17.196;2022-10-16T17:40:18;20.80;99.90
51337;DHT22;37421;51.176;17.196;2022-10-16T17:42:44;20.80;99.90
51337;DHT22;37421;51.176;17.196;2022-10-16T17:45:10;20.80;99.90